createdAt,value
2018-12-25T00:01:27.753Z,0.40
2018-12-25T00:03:56.186Z,0.40
2018-12-25T00:06:24.587Z,0.30
2018-12-25T00:08:53.270Z,0.30
2018-12-25T00:11:21.730Z,0.30
2018-12-25T00:13:50.160Z,0.30
2018-12-25T00:16:18.589Z,0.30
2018-12-25T00:18:47.346Z,0.40
2018-12-25T00:21:15.750Z,0.30
2018-12-25T00:23:44.162Z,0.30
2018-12-25T00:26:12.606Z,0.40
2018-12-25T00:28:41.014Z,0.30
2018-12-25T00:31:09.435Z,0.30
2018-12-25T00:33:37.877Z,0.30
2018-12-25T00:36:06.302Z,0.40
2018-12-25T00:38:34.723Z,0.40
2018-12-25T00:41:03.156Z,0.40
2018-12-25T00:43:31.578Z,0.50
2018-12-25T00:46:00.001Z,0.50
2018-12-25T00:48:28.413Z,0.40
2018-12-25T00:50:56.843Z,0.40
2018-12-25T00:53:25.271Z,0.40
2018-12-25T00:55:53.720Z,0.40
2018-12-25T00:58:22.180Z,0.50
2018-12-25T01:00:50.586Z,0.50
2018-12-25T01:03:19.017Z,0.50
2018-12-25T01:05:47.510Z,0.40
2018-12-25T01:08:15.947Z,0.50
2018-12-25T01:10:44.378Z,0.50
2018-12-25T01:13:12.806Z,0.50
2018-12-25T01:15:41.214Z,0.50
2018-12-25T01:18:09.709Z,0.50
2018-12-25T01:20:38.145Z,0.40
2018-12-25T01:23:06.584Z,0.40
2018-12-25T01:25:35.008Z,0.40
2018-12-25T01:28:03.505Z,0.50
2018-12-25T01:30:31.922Z,0.50
2018-12-25T01:33:00.354Z,0.50
2018-12-25T01:35:28.851Z,0.50
2018-12-25T01:37:57.267Z,0.60
2018-12-25T01:40:25.702Z,0.60
2018-12-25T01:42:55.047Z,0.50
2018-12-25T01:45:23.470Z,0.60
2018-12-25T01:47:51.910Z,0.50
2018-12-25T01:50:20.579Z,0.60
2018-12-25T01:52:49.007Z,0.50
2018-12-25T01:55:17.421Z,0.50
2018-12-25T01:57:45.877Z,0.50
2018-12-25T02:00:14.367Z,0.50
2018-12-25T02:02:42.906Z,0.50
2018-12-25T02:05:11.286Z,0.50
2018-12-25T02:07:39.726Z,0.50
2018-12-25T02:10:09.025Z,0.40
2018-12-25T02:12:37.469Z,0.40
2018-12-25T02:15:06.020Z,0.40
2018-12-25T02:17:34.452Z,0.40
2018-12-25T02:20:02.866Z,0.40
2018-12-25T02:22:31.316Z,0.40
2018-12-25T02:24:59.719Z,0.40
2018-12-25T02:27:28.154Z,0.40
2018-12-25T02:29:56.595Z,0.50
2018-12-25T02:32:25.010Z,0.50
2018-12-25T02:34:53.445Z,0.50
2018-12-25T02:37:21.910Z,0.50
2018-12-25T02:39:50.309Z,0.50
2018-12-25T02:42:18.858Z,0.50
2018-12-25T02:44:47.273Z,0.50
2018-12-25T02:47:15.698Z,0.50
2018-12-25T02:49:50.138Z,0.50
2018-12-25T02:52:14.267Z,0.50
2018-12-25T02:54:42.714Z,0.50
2018-12-25T02:57:11.403Z,0.50
2018-12-25T02:59:39.832Z,0.50
2018-12-25T03:02:08.245Z,0.50
2018-12-25T03:04:36.683Z,0.50
2018-12-25T03:07:05.102Z,0.50
2018-12-25T03:09:33.547Z,0.50
2018-12-25T03:12:01.971Z,0.50
2018-12-25T03:14:30.391Z,0.50
2018-12-25T03:16:58.820Z,0.50
2018-12-25T03:19:27.226Z,0.50
2018-12-25T03:21:55.676Z,0.50
2018-12-25T03:24:24.086Z,0.50
2018-12-25T03:26:52.589Z,0.50
2018-12-25T03:29:21.007Z,0.60
2018-12-25T03:31:49.425Z,0.60
2018-12-25T03:34:17.838Z,0.60
2018-12-25T03:36:46.279Z,0.50
2018-12-25T03:39:14.694Z,0.50
2018-12-25T03:41:43.137Z,0.50
2018-12-25T03:44:11.550Z,0.40
2018-12-25T03:46:39.999Z,0.40
2018-12-25T03:49:08.448Z,0.30
2018-12-25T03:51:36.855Z,0.40
2018-12-25T03:54:05.288Z,0.40
2018-12-25T03:56:33.815Z,0.50
2018-12-25T03:59:02.334Z,0.40
2018-12-25T04:01:30.739Z,0.50
2018-12-25T04:03:59.284Z,0.40
2018-12-25T04:06:27.794Z,0.40
2018-12-25T04:08:56.309Z,0.50
2018-12-25T04:11:24.704Z,0.50
2018-12-25T04:13:53.142Z,0.50
2018-12-25T04:16:21.569Z,0.50
2018-12-25T04:18:50.014Z,0.60
2018-12-25T04:21:18.573Z,0.60
2018-12-25T04:23:47.034Z,0.60
2018-12-25T04:26:15.459Z,0.70
2018-12-25T04:28:43.888Z,0.70
2018-12-25T04:31:12.342Z,0.70
2018-12-25T04:33:40.750Z,0.70
2018-12-25T04:36:09.185Z,0.70
2018-12-25T04:38:37.600Z,0.60
2018-12-25T04:41:06.029Z,0.60
2018-12-25T04:43:34.445Z,0.60
2018-12-25T04:46:02.874Z,0.60
2018-12-25T04:48:31.279Z,0.60
2018-12-25T04:50:59.727Z,0.60
2018-12-25T04:53:28.169Z,0.60
2018-12-25T04:55:56.582Z,0.70
2018-12-25T04:58:25.023Z,0.70
2018-12-25T05:00:53.432Z,0.70
2018-12-25T05:03:21.895Z,0.70
2018-12-25T05:05:50.315Z,0.70
2018-12-25T05:08:18.766Z,0.70
2018-12-25T05:10:47.170Z,0.70
2018-12-25T05:13:15.834Z,0.60
2018-12-25T05:15:44.246Z,0.50
2018-12-25T05:18:12.665Z,0.60
2018-12-25T05:20:41.094Z,0.60
2018-12-25T05:23:09.519Z,0.50
2018-12-25T05:25:38.834Z,0.60
2018-12-25T05:28:07.245Z,0.60
2018-12-25T05:30:35.691Z,0.60
2018-12-25T05:33:04.119Z,0.60
2018-12-25T05:35:32.547Z,0.50
2018-12-25T05:38:00.966Z,0.60
2018-12-25T05:40:29.419Z,0.60
2018-12-25T05:42:57.837Z,0.60
2018-12-25T05:45:26.267Z,0.60
2018-12-25T05:47:54.681Z,0.60
2018-12-25T05:50:23.114Z,0.60
2018-12-25T05:52:51.525Z,0.50
2018-12-25T05:55:19.963Z,0.60
2018-12-25T05:57:48.382Z,0.60
2018-12-25T06:00:17.047Z,0.70
2018-12-25T06:02:45.466Z,0.70
2018-12-25T06:05:13.894Z,0.70
2018-12-25T06:07:42.326Z,0.70
2018-12-25T06:10:10.742Z,0.60
2018-12-25T06:12:39.179Z,0.60
2018-12-25T06:15:07.595Z,0.50
2018-12-25T06:17:36.036Z,0.50
2018-12-25T06:20:05.309Z,0.50
2018-12-25T06:22:33.735Z,0.40
2018-12-25T06:25:02.148Z,0.40
2018-12-25T06:27:30.795Z,0.50
2018-12-25T06:29:59.234Z,0.50
2018-12-25T06:32:27.642Z,0.50
2018-12-25T06:34:56.055Z,0.60
2018-12-25T06:37:24.463Z,0.60
2018-12-25T06:39:52.901Z,0.60
2018-12-25T06:42:22.209Z,0.60
2018-12-25T06:44:50.650Z,0.60
2018-12-25T06:47:19.055Z,0.60
2018-12-25T06:49:47.500Z,0.60
2018-12-25T06:52:15.916Z,0.60
2018-12-25T06:54:44.827Z,0.60
2018-12-25T06:57:13.263Z,0.70
2018-12-25T06:59:41.847Z,0.70
2018-12-25T07:02:10.274Z,0.60
2018-12-25T07:04:38.700Z,0.60
2018-12-25T07:07:07.122Z,0.60
2018-12-25T07:09:35.554Z,0.70
2018-12-25T07:12:03.971Z,0.70
2018-12-25T07:14:32.468Z,0.70
2018-12-25T07:17:00.897Z,0.70
2018-12-25T07:19:29.322Z,0.70
2018-12-25T07:21:57.756Z,0.70
2018-12-25T07:24:26.187Z,0.70
2018-12-25T07:26:54.609Z,0.70
2018-12-25T07:29:23.050Z,0.80
2018-12-25T07:31:51.493Z,0.80
2018-12-25T07:34:19.923Z,0.80
2018-12-25T07:36:48.334Z,0.80
2018-12-25T07:39:17.198Z,0.80
2018-12-25T07:41:45.615Z,0.80
2018-12-25T07:44:14.040Z,0.80
2018-12-25T07:46:42.466Z,0.80
2018-12-25T07:49:10.887Z,0.80
2018-12-25T07:51:39.364Z,0.80
2018-12-25T07:54:07.786Z,0.80
2018-12-25T07:56:36.458Z,0.90
2018-12-25T07:59:04.895Z,0.80
2018-12-25T08:01:33.383Z,0.80
2018-12-25T08:04:02.728Z,0.80
2018-12-25T08:06:31.150Z,0.90
2018-12-25T08:08:59.585Z,0.90
2018-12-25T08:11:28.026Z,0.90
2018-12-25T08:13:56.449Z,1.00
2018-12-25T08:16:24.871Z,1.00
2018-12-25T08:18:53.303Z,1.00
2018-12-25T08:21:29.097Z,1.00
2018-12-25T08:23:51.875Z,1.00
2018-12-25T08:26:20.295Z,1.00
2018-12-25T08:28:48.723Z,1.00
2018-12-25T08:31:17.160Z,1.00
2018-12-25T08:33:45.579Z,1.10
2018-12-25T08:36:14.001Z,1.10
2018-12-25T08:38:42.415Z,1.00
2018-12-25T08:41:10.855Z,1.00
2018-12-25T08:43:39.267Z,1.00
2018-12-25T08:46:07.855Z,0.90
2018-12-25T08:48:36.270Z,0.90
2018-12-25T08:51:04.762Z,0.90
2018-12-25T08:53:33.178Z,0.90
2018-12-25T08:56:01.594Z,0.90
2018-12-25T08:58:30.035Z,0.90
2018-12-25T09:00:58.461Z,0.90
2018-12-25T09:03:27.125Z,0.90
2018-12-25T09:05:55.546Z,0.90
2018-12-25T09:08:23.970Z,0.90
2018-12-25T09:10:52.401Z,0.90
2018-12-25T09:13:20.819Z,0.90
2018-12-25T09:15:49.259Z,1.00
2018-12-25T09:18:17.701Z,1.00
2018-12-25T09:20:46.126Z,1.10
2018-12-25T09:23:14.566Z,1.00
2018-12-25T09:25:43.002Z,1.00
2018-12-25T09:28:11.413Z,1.00
2018-12-25T09:30:39.846Z,1.10
2018-12-25T09:33:08.252Z,1.10
2018-12-25T09:35:36.781Z,1.10
2018-12-25T09:38:05.209Z,1.20
2018-12-25T09:40:33.623Z,1.30
2018-12-25T09:43:02.965Z,1.30
2018-12-25T09:45:31.393Z,1.30
2018-12-25T09:47:59.814Z,1.40
2018-12-25T09:50:28.221Z,1.40
2018-12-25T09:52:56.658Z,1.40
2018-12-25T09:55:25.081Z,1.40
2018-12-25T09:57:53.529Z,1.40
2018-12-25T10:00:21.957Z,1.40
2018-12-25T10:02:50.404Z,1.40
2018-12-25T10:05:18.827Z,1.40
2018-12-25T10:07:47.233Z,1.40
2018-12-25T10:10:15.664Z,1.40
2018-12-25T10:12:44.074Z,1.30
2018-12-25T10:15:12.500Z,1.40
2018-12-25T10:17:40.918Z,1.40
2018-12-25T10:20:09.408Z,1.40
2018-12-25T10:22:37.850Z,1.50
2018-12-25T10:25:06.285Z,1.60
2018-12-25T10:27:34.694Z,1.60
2018-12-25T10:30:03.154Z,1.60
2018-12-25T10:32:31.574Z,1.60
2018-12-25T10:35:00.031Z,1.60
2018-12-25T10:37:28.699Z,1.60
2018-12-25T10:39:57.128Z,1.60
2018-12-25T10:42:25.595Z,1.60
2018-12-25T10:44:54.023Z,1.60
2018-12-25T10:47:22.454Z,1.70
2018-12-25T10:49:50.873Z,1.70
2018-12-25T10:52:19.318Z,1.70
2018-12-25T10:54:47.738Z,1.70
2018-12-25T10:57:16.170Z,1.70
2018-12-25T10:59:44.586Z,1.70
2018-12-25T11:02:13.026Z,1.80
2018-12-25T11:04:41.547Z,1.90
2018-12-25T11:07:09.978Z,1.90
2018-12-25T11:09:38.422Z,2.00
2018-12-25T11:12:06.903Z,2.10
2018-12-25T11:14:35.345Z,2.10
2018-12-25T11:17:03.755Z,2.20
2018-12-25T11:19:32.197Z,2.30
2018-12-25T11:22:00.609Z,2.30
2018-12-25T11:24:29.057Z,2.30
2018-12-25T11:26:57.468Z,2.40
2018-12-25T11:29:26.001Z,2.40
2018-12-25T11:31:54.422Z,2.40
2018-12-25T11:34:22.852Z,2.40
2018-12-25T11:36:51.363Z,2.40
2018-12-25T11:39:19.782Z,2.40
2018-12-25T11:41:49.135Z,2.40
2018-12-25T11:44:17.570Z,2.40
2018-12-25T11:46:46.124Z,2.50
2018-12-25T11:49:14.565Z,2.50
2018-12-25T11:51:43.003Z,2.40
2018-12-25T11:54:11.438Z,2.40
2018-12-25T11:56:39.925Z,2.40
2018-12-25T11:59:08.342Z,2.40
2018-12-25T12:01:36.771Z,2.50
2018-12-25T12:04:05.208Z,2.50
2018-12-25T12:06:34.585Z,2.50
2018-12-25T12:09:04.487Z,2.50
2018-12-25T12:11:32.907Z,2.50
2018-12-25T12:14:01.361Z,2.50
2018-12-25T12:16:29.762Z,2.60
2018-12-25T12:18:58.195Z,2.60
2018-12-25T12:21:26.617Z,2.70
2018-12-25T12:23:55.061Z,2.70
2018-12-25T12:26:23.488Z,2.70
2018-12-25T12:28:51.906Z,2.70
2018-12-25T12:31:20.325Z,2.70
2018-12-25T12:33:48.782Z,2.70
2018-12-25T12:36:17.206Z,2.60
2018-12-25T12:38:45.654Z,2.70
2018-12-25T12:41:14.105Z,2.70
2018-12-25T12:43:42.521Z,2.70
2018-12-25T12:46:10.978Z,2.60
2018-12-25T12:48:39.398Z,2.50
2018-12-25T12:51:07.859Z,2.50
2018-12-25T12:53:36.271Z,2.60
2018-12-25T12:56:04.702Z,2.50
2018-12-25T12:58:33.121Z,2.50
2018-12-25T13:01:01.559Z,2.40
2018-12-25T13:03:29.985Z,2.50
2018-12-25T13:05:58.426Z,2.50
2018-12-25T13:08:26.846Z,2.60
2018-12-25T13:10:55.277Z,2.60
2018-12-25T13:13:23.702Z,2.60
2018-12-25T13:15:52.119Z,2.60
2018-12-25T13:18:21.351Z,2.60
2018-12-25T13:20:49.771Z,2.60
2018-12-25T13:23:18.195Z,2.60
2018-12-25T13:25:46.607Z,2.70
2018-12-25T13:28:15.032Z,2.60
2018-12-25T13:30:43.549Z,2.60
2018-12-25T13:33:11.954Z,2.60
2018-12-25T13:35:40.422Z,2.60
2018-12-25T13:38:08.837Z,2.60
2018-12-25T13:40:37.258Z,2.70
2018-12-25T13:43:05.794Z,2.70
2018-12-25T13:45:34.294Z,2.60
2018-12-25T13:48:02.727Z,2.60
2018-12-25T13:50:31.131Z,2.60
2018-12-25T13:53:02.943Z,2.60
2018-12-25T13:55:29.710Z,2.60
2018-12-25T13:57:58.134Z,2.50
2018-12-25T14:00:26.571Z,2.50
2018-12-25T14:02:55.000Z,2.50
2018-12-25T14:05:23.431Z,2.50
2018-12-25T14:07:51.951Z,2.50
2018-12-25T14:10:20.383Z,2.50
2018-12-25T14:12:48.797Z,2.40
2018-12-25T14:15:17.236Z,2.40
2018-12-25T14:17:45.643Z,2.30
2018-12-25T14:20:14.110Z,2.30
2018-12-25T14:22:42.524Z,2.20
2018-12-25T14:25:10.982Z,2.20
2018-12-25T14:27:39.409Z,2.20
2018-12-25T14:30:09.196Z,2.20
2018-12-25T14:32:37.622Z,2.20
2018-12-25T14:35:06.040Z,2.20
2018-12-25T14:37:34.532Z,2.20
2018-12-25T14:40:02.978Z,2.20
2018-12-25T14:42:31.389Z,2.10
2018-12-25T14:44:59.801Z,2.10
2018-12-25T14:47:28.216Z,2.20
2018-12-25T14:49:56.670Z,2.20
2018-12-25T14:52:25.141Z,2.20
2018-12-25T14:54:53.810Z,2.10
2018-12-25T14:57:22.322Z,2.00
2018-12-25T14:59:50.741Z,2.00
2018-12-25T15:02:19.174Z,2.00
2018-12-25T15:04:47.598Z,2.00
2018-12-25T15:07:16.024Z,2.00
2018-12-25T15:09:44.450Z,2.00
2018-12-25T15:12:12.869Z,2.00
2018-12-25T15:14:41.502Z,1.90
2018-12-25T15:17:09.919Z,1.80
2018-12-25T15:19:38.376Z,1.80
2018-12-25T15:22:06.788Z,1.80
2018-12-25T15:24:35.216Z,1.70
2018-12-25T15:27:03.654Z,1.70
2018-12-25T15:29:32.106Z,1.70
2018-12-25T15:32:00.513Z,1.70
2018-12-25T15:34:28.956Z,1.60
2018-12-25T15:36:57.378Z,1.50
2018-12-25T15:39:25.822Z,1.50
2018-12-25T15:41:54.234Z,1.50
2018-12-25T15:44:22.668Z,1.50
2018-12-25T15:46:51.081Z,1.50
2018-12-25T15:49:19.497Z,1.50
2018-12-25T15:51:47.974Z,1.50
2018-12-25T15:54:16.449Z,1.50
2018-12-25T15:56:44.904Z,1.50
2018-12-25T15:59:13.379Z,1.40
2018-12-25T16:01:41.836Z,1.40
2018-12-25T16:04:10.258Z,1.30
2018-12-25T16:06:38.715Z,1.30
2018-12-25T16:09:07.125Z,1.30
2018-12-25T16:11:35.573Z,1.30
2018-12-25T16:14:03.986Z,1.20
2018-12-25T16:16:32.421Z,1.20
2018-12-25T16:19:00.844Z,1.20
2018-12-25T16:21:29.268Z,1.20
2018-12-25T16:23:57.830Z,1.30
2018-12-25T16:26:26.252Z,1.40
2018-12-25T16:28:54.677Z,1.50
2018-12-25T16:31:23.166Z,1.50
2018-12-25T16:33:51.623Z,1.50
2018-12-25T16:36:20.054Z,1.50
2018-12-25T16:38:48.472Z,1.50
2018-12-25T16:41:16.890Z,1.50
2018-12-25T16:43:45.346Z,1.50
2018-12-25T16:46:13.784Z,1.40
2018-12-25T16:48:42.221Z,1.40
2018-12-25T16:51:10.648Z,1.40
2018-12-25T16:53:39.336Z,1.40
2018-12-25T16:56:07.750Z,1.40
2018-12-25T16:58:36.263Z,1.40
2018-12-25T17:01:04.685Z,1.50
2018-12-25T17:03:33.990Z,1.50
2018-12-25T17:06:02.422Z,1.50
2018-12-25T17:08:30.858Z,1.50
2018-12-25T17:10:59.284Z,1.50
2018-12-25T17:13:27.706Z,1.50
2018-12-25T17:15:56.130Z,1.40
2018-12-25T17:18:24.546Z,1.40
2018-12-25T17:20:52.989Z,1.40
2018-12-25T17:23:21.378Z,1.50
2018-12-25T17:25:49.809Z,1.50
2018-12-25T17:28:18.230Z,1.50
2018-12-25T17:30:46.712Z,1.50
2018-12-25T17:33:15.168Z,1.40
2018-12-25T17:35:43.583Z,1.40
2018-12-25T17:38:12.026Z,1.40
2018-12-25T17:40:40.492Z,1.40
2018-12-25T17:43:08.903Z,1.40
2018-12-25T17:45:37.325Z,1.40
2018-12-25T17:48:05.793Z,1.40
2018-12-25T17:50:34.264Z,1.40
2018-12-25T17:53:02.690Z,1.30
2018-12-25T17:55:31.116Z,1.30
2018-12-25T17:57:59.606Z,1.30
2018-12-25T18:00:28.042Z,1.30
2018-12-25T18:02:56.576Z,1.30
2018-12-25T18:05:24.978Z,1.30
2018-12-25T18:07:53.415Z,1.40
2018-12-25T18:10:21.851Z,1.40
2018-12-25T18:12:50.263Z,1.40
2018-12-25T18:15:18.686Z,1.40
2018-12-25T18:17:47.114Z,1.40
2018-12-25T18:20:15.554Z,1.40
2018-12-25T18:22:43.971Z,1.30
2018-12-25T18:25:12.389Z,1.20
2018-12-25T18:27:40.926Z,1.20
2018-12-25T18:30:09.396Z,1.20
2018-12-25T18:32:37.809Z,1.20
2018-12-25T18:35:06.473Z,1.30
2018-12-25T18:37:34.894Z,1.20
2018-12-25T18:40:03.476Z,1.10
2018-12-25T18:42:31.912Z,1.00
2018-12-25T18:45:00.318Z,0.90
2018-12-25T18:47:28.742Z,0.90
2018-12-25T18:49:57.237Z,0.80
2018-12-25T18:52:25.673Z,0.90
2018-12-25T18:54:54.094Z,0.80
2018-12-25T18:57:22.546Z,0.80
2018-12-25T18:59:51.048Z,0.80
2018-12-25T19:02:19.667Z,0.80
2018-12-25T19:04:48.124Z,0.70
2018-12-25T19:07:16.750Z,0.80
2018-12-25T19:09:45.166Z,0.80
2018-12-25T19:12:13.587Z,0.80
2018-12-25T19:14:45.094Z,0.80
2018-12-25T19:17:13.522Z,0.70
2018-12-25T19:19:41.959Z,0.60
2018-12-25T19:22:10.389Z,0.60
2018-12-25T19:24:38.818Z,0.70
2018-12-25T19:27:07.238Z,0.70
2018-12-25T19:29:35.663Z,0.80
2018-12-25T19:32:04.077Z,0.80
2018-12-25T19:34:32.514Z,0.80
2018-12-25T19:37:00.941Z,0.80
2018-12-25T19:39:29.365Z,0.80
2018-12-25T19:41:57.799Z,0.90
2018-12-25T19:44:26.223Z,0.80
2018-12-25T19:46:54.649Z,0.80
2018-12-25T19:49:23.070Z,0.80
2018-12-25T19:51:51.484Z,0.80
2018-12-25T19:54:19.926Z,0.70
2018-12-25T19:56:48.380Z,0.80
2018-12-25T19:59:16.794Z,0.80
2018-12-25T20:01:45.236Z,0.80
2018-12-25T20:04:22.371Z,0.80
2018-12-25T20:07:10.178Z,0.90
2018-12-25T20:09:41.673Z,0.80
2018-12-25T20:12:31.156Z,0.90
2018-12-25T20:15:20.584Z,0.80
2018-12-25T20:18:08.371Z,0.80
2018-12-25T20:20:57.978Z,0.80
2018-12-25T20:23:38.150Z,0.80
2018-12-25T20:26:18.549Z,0.70
2018-12-25T20:29:06.110Z,0.70
2018-12-25T20:31:49.578Z,0.70
2018-12-25T20:34:29.927Z,0.70
2018-12-25T20:37:10.088Z,0.70
2018-12-25T20:39:57.714Z,0.60
2018-12-25T20:42:31.968Z,0.60
2018-12-25T20:45:25.680Z,0.60
2018-12-25T20:48:12.113Z,0.60
2018-12-25T20:51:09.448Z,0.60
2018-12-25T20:53:52.620Z,0.60
2018-12-25T20:56:57.113Z,0.60
2018-12-25T20:59:37.385Z,0.50
2018-12-25T21:02:17.566Z,0.50
2018-12-25T21:05:07.006Z,0.50
2018-12-25T21:08:03.811Z,0.50
2018-12-25T21:10:43.894Z,0.50
2018-12-25T21:13:48.513Z,0.40
2018-12-25T21:16:22.725Z,0.50
2018-12-25T21:19:11.504Z,0.40
2018-12-25T21:21:57.906Z,0.50
2018-12-25T21:25:09.704Z,0.50
2018-12-25T21:27:32.847Z,0.60
2018-12-25T21:30:02.318Z,0.50
2018-12-25T21:32:32.273Z,0.60
2018-12-25T21:35:06.605Z,0.60
2018-12-25T21:37:36.154Z,0.50
2018-12-25T21:40:06.226Z,0.50
2018-12-25T21:42:34.912Z,0.50
2018-12-25T21:45:04.095Z,0.40
2018-12-25T21:47:32.691Z,0.40
2018-12-25T21:50:01.219Z,0.30
2018-12-25T21:52:29.691Z,0.30
2018-12-25T21:54:58.132Z,0.30
2018-12-25T21:57:26.643Z,0.20
2018-12-25T21:59:55.618Z,0.20
2018-12-25T22:02:24.128Z,0.20
2018-12-25T22:04:52.643Z,0.20
2018-12-25T22:07:21.066Z,0.20
2018-12-25T22:09:49.517Z,0.10
2018-12-25T22:12:17.930Z,0.10
2018-12-25T22:14:46.394Z,0.10
2018-12-25T22:17:14.871Z,0.10
2018-12-25T22:19:43.313Z,0.00
2018-12-25T22:22:11.742Z,0.00
2018-12-25T22:24:40.173Z,-0.10
2018-12-25T22:27:08.615Z,-0.10
2018-12-25T22:29:37.047Z,-0.10
2018-12-25T22:32:05.468Z,-0.10
2018-12-25T22:34:34.130Z,-0.10
2018-12-25T22:37:02.553Z,-0.10
2018-12-25T22:39:31.049Z,-0.10
2018-12-25T22:41:59.472Z,-0.10
2018-12-25T22:44:27.891Z,-0.10
2018-12-25T22:46:56.350Z,-0.10
2018-12-25T22:49:24.767Z,-0.10
2018-12-25T22:51:53.305Z,-0.10
2018-12-25T22:54:21.806Z,-0.10
2018-12-25T22:56:50.271Z,-0.10
2018-12-25T22:59:18.799Z,-0.10
2018-12-25T23:01:47.505Z,0.00
2018-12-25T23:04:15.919Z,-0.10
2018-12-25T23:06:44.336Z,-0.10
2018-12-25T23:09:12.778Z,-0.20
2018-12-25T23:11:41.209Z,-0.20
2018-12-25T23:14:09.646Z,-0.20
2018-12-25T23:16:38.062Z,-0.20
2018-12-25T23:19:06.579Z,-0.30
2018-12-25T23:21:34.994Z,-0.30
2018-12-25T23:24:03.705Z,-0.40
2018-12-25T23:26:32.158Z,-0.50
2018-12-25T23:29:00.762Z,-0.50
2018-12-25T23:31:29.227Z,-0.50
2018-12-25T23:33:59.376Z,-0.50
2018-12-25T23:36:27.991Z,-0.40
2018-12-25T23:38:56.437Z,-0.40
2018-12-25T23:41:24.861Z,-0.50
2018-12-25T23:43:53.304Z,-0.40
2018-12-25T23:46:21.737Z,-0.40
2018-12-25T23:48:50.169Z,-0.40
2018-12-25T23:51:18.589Z,-0.40
2018-12-25T23:53:47.026Z,-0.40
2018-12-25T23:56:15.517Z,-0.40
2018-12-25T23:58:43.961Z,-0.40
